sensor_id;sensor_type;location;lat;lon;timestamp;temperature;humidity
43087;DHT22;28708;52.224;6.924;2023-02-24T00:01:57;4.10;99.90
43087;DHT22;28708;52.224;6.924;2023-02-24T00:04:31;4.00;99.90
43087;DHT22;28708;52.224;6.924;2023-02-24T00:06:57;4.00;99.90
43087;DHT22;28708;52.224;6.924;2023-02-24T00:09:25;4.00;99.90
43087;DHT22;28708;52.224;6.924;2023-02-24T00:11:55;4.00;99.90
43087;DHT22;28708;52.224;6.924;2023-02-24T00:14:22;3.90;99.90
43087;DHT22;28708;52.224;6.924;2023-02-24T00:16:50;3.90;99.90
43087;DHT22;28708;52.224;6.924;2023-02-24T00:19:18;3.90;99.90
43087;DHT22;28708;52.224;6.924;2023-02-24T00:21:45;3.80;99.90
43087;DHT22;28708;52.224;6.924;2023-02-24T00:24:11;3.80;99.90
43087;DHT22;28708;52.224;6.924;2023-02-24T00:26:38;3.70;99.90
43087;DHT22;28708;52.224;6.924;2023-02-24T00:29:06;3.70;99.90
43087;DHT22;28708;52.224;6.924;2023-02-24T00:31:32;3.70;99.90
43087;DHT22;28708;52.224;6.924;2023-02-24T00:34:00;3.70;99.90
43087;DHT22;28708;52.224;6.924;2023-02-24T00:36:28;3.70;99.90
43087;DHT22;28708;52.224;6.924;2023-02-24T00:38:56;3.70;99.90
43087;DHT22;28708;52.224;6.924;2023-02-24T00:41:27;3.70;99.90
43087;DHT22;28708;52.224;6.924;2023-02-24T00:43:55;3.70;99.90
43087;DHT22;28708;52.224;6.924;2023-02-24T00:46:23;3.70;99.90
43087;DHT22;28708;52.224;6.924;2023-02-24T00:48:53;3.60;99.90
43087;DHT22;28708;52.224;6.924;2023-02-24T00:51:22;3.70;99.90
43087;DHT22;28708;52.224;6.924;2023-02-24T00:53:53;3.70;99.90
43087;DHT22;28708;52.224;6.924;2023-02-24T00:56:25;3.60;99.90
43087;DHT22;28708;52.224;6.924;2023-02-24T00:58:52;3.60;99.90
43087;DHT22;28708;52.224;6.924;2023-02-24T01:01:21;3.40;99.90
43087;DHT22;28708;52.224;6.924;2023-02-24T01:03:48;3.50;99.90
43087;DHT22;28708;52.224;6.924;2023-02-24T01:06:17;3.50;99.90
43087;DHT22;28708;52.224;6.924;2023-02-24T01:08:46;3.40;99.90
43087;DHT22;28708;52.224;6.924;2023-02-24T01:11:15;3.50;99.90
43087;DHT22;28708;52.224;6.924;2023-02-24T01:14:03;3.50;99.90
43087;DHT22;28708;52.224;6.924;2023-02-24T01:16:29;3.40;99.90
43087;DHT22;28708;52.224;6.924;2023-02-24T01:18:55;3.30;99.90
43087;DHT22;28708;52.224;6.924;2023-02-24T01:21:21;3.30;99.90
43087;DHT22;28708;52.224;6.924;2023-02-24T01:23:48;3.40;99.90
43087;DHT22;28708;52.224;6.924;2023-02-24T01:26:14;3.40;99.90
43087;DHT22;28708;52.224;6.924;2023-02-24T01:28:40;3.40;99.90
43087;DHT22;28708;52.224;6.924;2023-02-24T01:31:06;3.40;99.90
43087;DHT22;28708;52.224;6.924;2023-02-24T01:33:33;3.40;99.90
43087;DHT22;28708;52.224;6.924;2023-02-24T01:36:18;3.40;99.90
43087;DHT22;28708;52.224;6.924;2023-02-24T01:38:44;3.30;99.90
43087;DHT22;28708;52.224;6.924;2023-02-24T01:41:13;3.20;99.90
43087;DHT22;28708;52.224;6.924;2023-02-24T01:46:51;3.10;99.90
43087;DHT22;28708;52.224;6.924;2023-02-24T01:49:21;3.30;99.90
43087;DHT22;28708;52.224;6.924;2023-02-24T01:51:53;3.10;99.90
43087;DHT22;28708;52.224;6.924;2023-02-24T01:54:25;3.00;99.90
43087;DHT22;28708;52.224;6.924;2023-02-24T01:56:53;2.80;99.90
43087;DHT22;28708;52.224;6.924;2023-02-24T01:59:22;2.80;99.90
43087;DHT22;28708;52.224;6.924;2023-02-24T02:01:49;2.70;99.90
43087;DHT22;28708;52.224;6.924;2023-02-24T02:04:26;2.70;99.90
43087;DHT22;28708;52.224;6.924;2023-02-24T02:06:54;2.80;99.90
43087;DHT22;28708;52.224;6.924;2023-02-24T02:09:19;2.80;99.90
43087;DHT22;28708;52.224;6.924;2023-02-24T02:11:49;2.70;99.90
43087;DHT22;28708;52.224;6.924;2023-02-24T02:14:17;2.60;99.90
43087;DHT22;28708;52.224;6.924;2023-02-24T02:22:37;2.50;99.90
43087;DHT22;28708;52.224;6.924;2023-02-24T02:28:29;2.40;99.90
43087;DHT22;28708;52.224;6.924;2023-02-24T02:34:05;2.40;99.90
43087;DHT22;28708;52.224;6.924;2023-02-24T02:39:11;2.30;99.90
43087;DHT22;28708;52.224;6.924;2023-02-24T02:47:02;2.50;99.90
43087;DHT22;28708;52.224;6.924;2023-02-24T02:52:05;2.40;99.90
43087;DHT22;28708;52.224;6.924;2023-02-24T02:54:44;2.50;99.90
43087;DHT22;28708;52.224;6.924;2023-02-24T02:57:19;2.50;99.90
43087;DHT22;28708;52.224;6.924;2023-02-24T02:59:55;2.60;99.90
43087;DHT22;28708;52.224;6.924;2023-02-24T03:02:25;2.60;99.90
43087;DHT22;28708;52.224;6.924;2023-02-24T03:04:58;2.60;99.90
43087;DHT22;28708;52.224;6.924;2023-02-24T03:07:27;2.50;99.90
43087;DHT22;28708;52.224;6.924;2023-02-24T03:10:00;2.50;99.90
43087;DHT22;28708;52.224;6.924;2023-02-24T03:12:30;2.40;99.90
43087;DHT22;28708;52.224;6.924;2023-02-24T03:15:01;2.40;99.90
43087;DHT22;28708;52.224;6.924;2023-02-24T03:17:34;2.40;99.90
43087;DHT22;28708;52.224;6.924;2023-02-24T03:22:58;2.40;99.90
43087;DHT22;28708;52.224;6.924;2023-02-24T03:25:31;2.40;99.90
43087;DHT22;28708;52.224;6.924;2023-02-24T03:28:12;2.40;99.90
43087;DHT22;28708;52.224;6.924;2023-02-24T03:30:43;2.30;99.90
43087;DHT22;28708;52.224;6.924;2023-02-24T03:33:23;2.20;99.90
43087;DHT22;28708;52.224;6.924;2023-02-24T03:35:55;2.20;99.90
43087;DHT22;28708;52.224;6.924;2023-02-24T03:38:28;2.10;99.90
43087;DHT22;28708;52.224;6.924;2023-02-24T03:40:55;2.20;99.90
43087;DHT22;28708;52.224;6.924;2023-02-24T03:43:31;2.20;99.90
43087;DHT22;28708;52.224;6.924;2023-02-24T03:45:59;2.20;99.90
43087;DHT22;28708;52.224;6.924;2023-02-24T03:48:28;2.20;99.90
43087;DHT22;28708;52.224;6.924;2023-02-24T03:50:56;2.20;99.90
43087;DHT22;28708;52.224;6.924;2023-02-24T03:56:45;2.20;99.90
43087;DHT22;28708;52.224;6.924;2023-02-24T03:59:44;2.30;99.90
43087;DHT22;28708;52.224;6.924;2023-02-24T04:02:21;2.20;99.90
43087;DHT22;28708;52.224;6.924;2023-02-24T04:05:07;2.20;99.90
43087;DHT22;28708;52.224;6.924;2023-02-24T04:07:59;2.30;99.90
43087;DHT22;28708;52.224;6.924;2023-02-24T04:10:51;2.40;99.90
43087;DHT22;28708;52.224;6.924;2023-02-24T04:15:55;2.50;99.90
43087;DHT22;28708;52.224;6.924;2023-02-24T04:18:28;2.60;99.90
43087;DHT22;28708;52.224;6.924;2023-02-24T04:20:58;2.60;99.90
43087;DHT22;28708;52.224;6.924;2023-02-24T04:23:30;2.60;99.90
43087;DHT22;28708;52.224;6.924;2023-02-24T04:25:56;2.60;99.90
43087;DHT22;28708;52.224;6.924;2023-02-24T04:28:24;2.60;99.90
43087;DHT22;28708;52.224;6.924;2023-02-24T04:30:56;2.50;99.90
43087;DHT22;28708;52.224;6.924;2023-02-24T04:33:23;2.60;99.90
43087;DHT22;28708;52.224;6.924;2023-02-24T04:35:51;2.50;99.90
43087;DHT22;28708;52.224;6.924;2023-02-24T04:38:18;2.50;99.90
43087;DHT22;28708;52.224;6.924;2023-02-24T04:40:44;2.50;99.90
43087;DHT22;28708;52.224;6.924;2023-02-24T04:43:10;2.60;99.90
43087;DHT22;28708;52.224;6.924;2023-02-24T04:45:37;2.60;99.90
43087;DHT22;28708;52.224;6.924;2023-02-24T04:48:06;2.60;99.90
43087;DHT22;28708;52.224;6.924;2023-02-24T04:50:39;2.60;99.90
43087;DHT22;28708;52.224;6.924;2023-02-24T04:53:13;2.50;99.90
43087;DHT22;28708;52.224;6.924;2023-02-24T04:55:48;2.50;99.90
43087;DHT22;28708;52.224;6.924;2023-02-24T04:58:17;2.50;99.90
43087;DHT22;28708;52.224;6.924;2023-02-24T05:00:47;2.50;99.90
43087;DHT22;28708;52.224;6.924;2023-02-24T05:03:14;2.50;99.90
43087;DHT22;28708;52.224;6.924;2023-02-24T05:05:51;2.50;99.90
43087;DHT22;28708;52.224;6.924;2023-02-24T05:08:21;2.60;99.90
43087;DHT22;28708;52.224;6.924;2023-02-24T05:10:47;2.50;99.90
43087;DHT22;28708;52.224;6.924;2023-02-24T05:13:16;2.50;99.90
43087;DHT22;28708;52.224;6.924;2023-02-24T05:15:44;2.60;99.90
43087;DHT22;28708;52.224;6.924;2023-02-24T05:18:12;2.60;99.90
43087;DHT22;28708;52.224;6.924;2023-02-24T05:20:51;2.70;99.90
43087;DHT22;28708;52.224;6.924;2023-02-24T05:23:38;2.70;99.90
43087;DHT22;28708;52.224;6.924;2023-02-24T05:26:06;2.70;99.90
43087;DHT22;28708;52.224;6.924;2023-02-24T05:28:39;2.70;99.90
43087;DHT22;28708;52.224;6.924;2023-02-24T05:31:11;2.70;99.90
43087;DHT22;28708;52.224;6.924;2023-02-24T05:33:40;2.70;99.90
43087;DHT22;28708;52.224;6.924;2023-02-24T05:36:10;2.70;99.90
43087;DHT22;28708;52.224;6.924;2023-02-24T05:38:37;2.70;99.90
43087;DHT22;28708;52.224;6.924;2023-02-24T05:41:07;2.60;99.90
43087;DHT22;28708;52.224;6.924;2023-02-24T05:43:35;2.70;99.90
43087;DHT22;28708;52.224;6.924;2023-02-24T05:46:03;2.60;99.90
43087;DHT22;28708;52.224;6.924;2023-02-24T05:48:31;2.60;99.90
43087;DHT22;28708;52.224;6.924;2023-02-24T05:51:01;2.70;99.90
43087;DHT22;28708;52.224;6.924;2023-02-24T05:53:27;2.70;99.90
43087;DHT22;28708;52.224;6.924;2023-02-24T05:55:53;2.70;99.90
43087;DHT22;28708;52.224;6.924;2023-02-24T05:58:18;2.60;99.90
43087;DHT22;28708;52.224;6.924;2023-02-24T06:00:44;2.60;99.90
43087;DHT22;28708;52.224;6.924;2023-02-24T06:03:11;2.70;99.90
43087;DHT22;28708;52.224;6.924;2023-02-24T06:05:42;2.70;99.90
43087;DHT22;28708;52.224;6.924;2023-02-24T06:08:08;2.70;99.90
43087;DHT22;28708;52.224;6.924;2023-02-24T06:10:37;2.70;99.90
43087;DHT22;28708;52.224;6.924;2023-02-24T06:13:05;2.70;99.90
43087;DHT22;28708;52.224;6.924;2023-02-24T06:15:31;2.70;99.90
43087;DHT22;28708;52.224;6.924;2023-02-24T06:17:59;2.80;99.90
43087;DHT22;28708;52.224;6.924;2023-02-24T06:20:27;2.70;99.90
43087;DHT22;28708;52.224;6.924;2023-02-24T06:22:53;2.70;99.90
43087;DHT22;28708;52.224;6.924;2023-02-24T06:25:23;2.80;99.90
43087;DHT22;28708;52.224;6.924;2023-02-24T06:27:52;2.80;99.90
43087;DHT22;28708;52.224;6.924;2023-02-24T06:30:20;2.70;99.90
43087;DHT22;28708;52.224;6.924;2023-02-24T06:32:47;2.70;99.90
43087;DHT22;28708;52.224;6.924;2023-02-24T06:35:13;2.80;99.90
43087;DHT22;28708;52.224;6.924;2023-02-24T06:37:39;2.80;99.90
43087;DHT22;28708;52.224;6.924;2023-02-24T06:40:06;2.80;99.90
43087;DHT22;28708;52.224;6.924;2023-02-24T06:42:52;2.80;99.90
43087;DHT22;28708;52.224;6.924;2023-02-24T06:45:18;2.80;99.90
43087;DHT22;28708;52.224;6.924;2023-02-24T06:47:44;2.80;99.90
43087;DHT22;28708;52.224;6.924;2023-02-24T06:50:14;2.80;99.90
43087;DHT22;28708;52.224;6.924;2023-02-24T06:52:40;2.80;99.90
43087;DHT22;28708;52.224;6.924;2023-02-24T06:55:08;2.90;99.90
43087;DHT22;28708;52.224;6.924;2023-02-24T06:57:54;2.90;99.90
43087;DHT22;28708;52.224;6.924;2023-02-24T07:00:23;2.90;99.90
43087;DHT22;28708;52.224;6.924;2023-02-24T07:02:52;2.90;99.90
43087;DHT22;28708;52.224;6.924;2023-02-24T07:05:17;2.90;99.90
43087;DHT22;28708;52.224;6.924;2023-02-24T07:07:43;3.00;99.90
43087;DHT22;28708;52.224;6.924;2023-02-24T07:10:13;2.90;99.90
43087;DHT22;28708;52.224;6.924;2023-02-24T07:12:40;2.90;99.90
43087;DHT22;28708;52.224;6.924;2023-02-24T07:15:09;3.00;99.90
43087;DHT22;28708;52.224;6.924;2023-02-24T07:17:35;3.00;99.90
43087;DHT22;28708;52.224;6.924;2023-02-24T07:20:01;3.10;99.90
43087;DHT22;28708;52.224;6.924;2023-02-24T07:22:36;3.20;99.90
43087;DHT22;28708;52.224;6.924;2023-02-24T07:25:03;3.20;99.90
43087;DHT22;28708;52.224;6.924;2023-02-24T07:27:29;3.20;99.90
43087;DHT22;28708;52.224;6.924;2023-02-24T07:29:54;3.20;99.90
43087;DHT22;28708;52.224;6.924;2023-02-24T07:32:21;3.20;99.90
43087;DHT22;28708;52.224;6.924;2023-02-24T07:34:47;3.30;99.90
43087;DHT22;28708;52.224;6.924;2023-02-24T07:37:12;3.30;99.90
43087;DHT22;28708;52.224;6.924;2023-02-24T07:39:39;3.30;99.90
43087;DHT22;28708;52.224;6.924;2023-02-24T07:42:10;3.30;99.90
43087;DHT22;28708;52.224;6.924;2023-02-24T07:44:43;3.40;99.90
43087;DHT22;28708;52.224;6.924;2023-02-24T07:47:10;3.40;99.90
43087;DHT22;28708;52.224;6.924;2023-02-24T07:49:36;3.40;99.90
43087;DHT22;28708;52.224;6.924;2023-02-24T07:52:03;3.40;99.90
43087;DHT22;28708;52.224;6.924;2023-02-24T07:54:32;3.40;99.90
43087;DHT22;28708;52.224;6.924;2023-02-24T07:56:58;3.40;99.90
43087;DHT22;28708;52.224;6.924;2023-02-24T07:59:27;3.40;99.90
43087;DHT22;28708;52.224;6.924;2023-02-24T08:01:53;3.40;99.90
43087;DHT22;28708;52.224;6.924;2023-02-24T08:04:25;3.40;99.90
43087;DHT22;28708;52.224;6.924;2023-02-24T08:06:52;3.50;99.90
43087;DHT22;28708;52.224;6.924;2023-02-24T08:09:23;3.50;99.90
43087;DHT22;28708;52.224;6.924;2023-02-24T08:12:07;3.50;99.90
43087;DHT22;28708;52.224;6.924;2023-02-24T08:14:33;3.60;99.90
43087;DHT22;28708;52.224;6.924;2023-02-24T08:17:00;3.60;99.90
43087;DHT22;28708;52.224;6.924;2023-02-24T08:19:31;3.50;99.90
43087;DHT22;28708;52.224;6.924;2023-02-24T08:22:05;3.50;99.90
43087;DHT22;28708;52.224;6.924;2023-02-24T08:24:53;3.40;99.90
43087;DHT22;28708;52.224;6.924;2023-02-24T08:27:24;3.40;99.90
43087;DHT22;28708;52.224;6.924;2023-02-24T08:29:54;3.40;99.90
43087;DHT22;28708;52.224;6.924;2023-02-24T08:32:27;3.30;99.90
43087;DHT22;28708;52.224;6.924;2023-02-24T08:34:59;3.20;99.90
43087;DHT22;28708;52.224;6.924;2023-02-24T08:37:31;3.20;99.90
43087;DHT22;28708;52.224;6.924;2023-02-24T08:39:59;3.20;99.90
43087;DHT22;28708;52.224;6.924;2023-02-24T08:42:25;3.10;99.90
43087;DHT22;28708;52.224;6.924;2023-02-24T08:45:00;3.00;99.90
43087;DHT22;28708;52.224;6.924;2023-02-24T08:47:27;3.00;99.90
43087;DHT22;28708;52.224;6.924;2023-02-24T08:49:58;3.00;99.90
43087;DHT22;28708;52.224;6.924;2023-02-24T08:52:26;3.00;99.90
43087;DHT22;28708;52.224;6.924;2023-02-24T08:54:52;3.00;99.90
43087;DHT22;28708;52.224;6.924;2023-02-24T08:57:25;2.90;99.90
43087;DHT22;28708;52.224;6.924;2023-02-24T08:59:51;2.90;99.90
43087;DHT22;28708;52.224;6.924;2023-02-24T09:02:23;2.90;99.90
43087;DHT22;28708;52.224;6.924;2023-02-24T09:05:04;3.00;99.90
43087;DHT22;28708;52.224;6.924;2023-02-24T09:07:36;2.90;99.90
43087;DHT22;28708;52.224;6.924;2023-02-24T09:10:07;3.00;99.90
43087;DHT22;28708;52.224;6.924;2023-02-24T09:12:36;2.90;99.90
43087;DHT22;28708;52.224;6.924;2023-02-24T09:15:07;2.90;99.90
43087;DHT22;28708;52.224;6.924;2023-02-24T09:17:34;2.90;99.90
43087;DHT22;28708;52.224;6.924;2023-02-24T09:20:21;2.90;99.90
43087;DHT22;28708;52.224;6.924;2023-02-24T09:23:06;3.00;99.90
43087;DHT22;28708;52.224;6.924;2023-02-24T09:25:37;3.00;99.90
43087;DHT22;28708;52.224;6.924;2023-02-24T09:28:11;3.00;99.90
43087;DHT22;28708;52.224;6.924;2023-02-24T09:30:44;3.00;99.90
43087;DHT22;28708;52.224;6.924;2023-02-24T09:35:58;3.00;99.90
43087;DHT22;28708;52.224;6.924;2023-02-24T09:38:45;2.90;99.90
43087;DHT22;28708;52.224;6.924;2023-02-24T09:41:34;3.00;99.90
43087;DHT22;28708;52.224;6.924;2023-02-24T09:44:35;3.10;99.90
43087;DHT22;28708;52.224;6.924;2023-02-24T09:49:55;3.10;99.90
43087;DHT22;28708;52.224;6.924;2023-02-24T09:52:29;3.00;99.90
43087;DHT22;28708;52.224;6.924;2023-02-24T10:00:39;3.00;99.90
43087;DHT22;28708;52.224;6.924;2023-02-24T10:05:54;3.10;99.90
43087;DHT22;28708;52.224;6.924;2023-02-24T10:08:32;3.10;99.90
43087;DHT22;28708;52.224;6.924;2023-02-24T10:11:00;3.10;99.90
43087;DHT22;28708;52.224;6.924;2023-02-24T10:13:45;3.10;99.90
43087;DHT22;28708;52.224;6.924;2023-02-24T10:16:17;3.20;99.90
43087;DHT22;28708;52.224;6.924;2023-02-24T10:19:03;3.20;99.90
43087;DHT22;28708;52.224;6.924;2023-02-24T10:21:57;3.20;99.90
43087;DHT22;28708;52.224;6.924;2023-02-24T10:24:38;3.10;99.90
43087;DHT22;28708;52.224;6.924;2023-02-24T10:27:12;3.20;99.90
43087;DHT22;28708;52.224;6.924;2023-02-24T10:32:53;3.20;99.90
43087;DHT22;28708;52.224;6.924;2023-02-24T10:35:27;3.30;99.90
43087;DHT22;28708;52.224;6.924;2023-02-24T10:37:59;3.30;99.90
43087;DHT22;28708;52.224;6.924;2023-02-24T10:40:43;3.40;99.90
43087;DHT22;28708;52.224;6.924;2023-02-24T10:43:16;3.40;99.90
43087;DHT22;28708;52.224;6.924;2023-02-24T10:45:55;3.40;99.90
43087;DHT22;28708;52.224;6.924;2023-02-24T10:48:31;3.50;99.90
43087;DHT22;28708;52.224;6.924;2023-02-24T10:51:09;3.60;99.90
43087;DHT22;28708;52.224;6.924;2023-02-24T10:53:35;3.60;99.90
43087;DHT22;28708;52.224;6.924;2023-02-24T10:56:08;3.60;99.90
43087;DHT22;28708;52.224;6.924;2023-02-24T10:59:15;3.70;99.90
43087;DHT22;28708;52.224;6.924;2023-02-24T11:02:12;3.70;99.90
43087;DHT22;28708;52.224;6.924;2023-02-24T11:04:52;3.70;99.90
43087;DHT22;28708;52.224;6.924;2023-02-24T11:07:21;3.80;99.90
43087;DHT22;28708;52.224;6.924;2023-02-24T11:10:13;3.80;99.90
43087;DHT22;28708;52.224;6.924;2023-02-24T11:12:45;3.80;99.90
43087;DHT22;28708;52.224;6.924;2023-02-24T11:15:34;3.80;99.90
43087;DHT22;28708;52.224;6.924;2023-02-24T11:18:24;4.00;99.90
43087;DHT22;28708;52.224;6.924;2023-02-24T11:20:58;3.90;99.90
43087;DHT22;28708;52.224;6.924;2023-02-24T11:23:48;4.00;99.90
43087;DHT22;28708;52.224;6.924;2023-02-24T11:26:22;4.00;99.90
43087;DHT22;28708;52.224;6.924;2023-02-24T11:31:59;4.00;99.90
43087;DHT22;28708;52.224;6.924;2023-02-24T11:42:18;4.10;99.90
43087;DHT22;28708;52.224;6.924;2023-02-24T11:44:53;4.20;99.90
43087;DHT22;28708;52.224;6.924;2023-02-24T11:47:26;4.20;99.90
43087;DHT22;28708;52.224;6.924;2023-02-24T11:50:05;4.20;99.90
43087;DHT22;28708;52.224;6.924;2023-02-24T11:52:37;4.20;99.90
43087;DHT22;28708;52.224;6.924;2023-02-24T11:55:16;4.20;99.90
43087;DHT22;28708;52.224;6.924;2023-02-24T11:57:48;4.30;99.90
43087;DHT22;28708;52.224;6.924;2023-02-24T12:00:27;4.30;99.90
43087;DHT22;28708;52.224;6.924;2023-02-24T12:05:52;4.40;99.90
43087;DHT22;28708;52.224;6.924;2023-02-24T12:08:32;4.40;99.90
43087;DHT22;28708;52.224;6.924;2023-02-24T12:11:18;4.40;99.90
43087;DHT22;28708;52.224;6.924;2023-02-24T12:13:58;4.50;99.90
43087;DHT22;28708;52.224;6.924;2023-02-24T12:16:33;4.60;99.90
43087;DHT22;28708;52.224;6.924;2023-02-24T12:19:14;4.60;99.90
43087;DHT22;28708;52.224;6.924;2023-02-24T12:21:48;4.60;99.90
43087;DHT22;28708;52.224;6.924;2023-02-24T12:24:15;4.70;99.90
43087;DHT22;28708;52.224;6.924;2023-02-24T12:27:03;4.70;99.90
43087;DHT22;28708;52.224;6.924;2023-02-24T12:29:44;4.80;99.90
43087;DHT22;28708;52.224;6.924;2023-02-24T12:35:18;4.90;99.90
43087;DHT22;28708;52.224;6.924;2023-02-24T12:38:07;5.00;99.90
43087;DHT22;28708;52.224;6.924;2023-02-24T12:40:41;5.10;99.90
43087;DHT22;28708;52.224;6.924;2023-02-24T12:46:23;5.20;99.90
43087;DHT22;28708;52.224;6.924;2023-02-24T12:54:45;5.60;99.90
43087;DHT22;28708;52.224;6.924;2023-02-24T12:58:24;5.60;99.90
43087;DHT22;28708;52.224;6.924;2023-02-24T13:00:20;5.60;99.90
43087;DHT22;28708;52.224;6.924;2023-02-24T13:06:17;5.60;99.90
43087;DHT22;28708;52.224;6.924;2023-02-24T13:09:50;5.60;99.90
43087;DHT22;28708;52.224;6.924;2023-02-24T13:11:57;5.60;99.90
43087;DHT22;28708;52.224;6.924;2023-02-24T13:14:36;5.70;99.90
43087;DHT22;28708;52.224;6.924;2023-02-24T13:19:38;5.70;99.90
43087;DHT22;28708;52.224;6.924;2023-02-24T13:24:34;5.80;99.90
43087;DHT22;28708;52.224;6.924;2023-02-24T13:29:47;6.00;99.90
43087;DHT22;28708;52.224;6.924;2023-02-24T13:37:47;6.70;99.90
43087;DHT22;28708;52.224;6.924;2023-02-24T13:45:23;7.20;99.90
43087;DHT22;28708;52.224;6.924;2023-02-24T13:48:12;7.30;99.90
43087;DHT22;28708;52.224;6.924;2023-02-24T13:57:07;7.50;99.90
43087;DHT22;28708;52.224;6.924;2023-02-24T13:59:59;7.30;99.90
43087;DHT22;28708;52.224;6.924;2023-02-24T14:02:39;7.40;99.90
43087;DHT22;28708;52.224;6.924;2023-02-24T14:05:15;7.30;99.90
43087;DHT22;28708;52.224;6.924;2023-02-24T14:07:46;7.30;99.90
43087;DHT22;28708;52.224;6.924;2023-02-24T14:10:21;7.00;99.90
43087;DHT22;28708;52.224;6.924;2023-02-24T14:12:54;6.60;99.90
43087;DHT22;28708;52.224;6.924;2023-02-24T14:15:26;6.20;99.90
43087;DHT22;28708;52.224;6.924;2023-02-24T14:18:03;6.10;99.90
43087;DHT22;28708;52.224;6.924;2023-02-24T14:20:34;6.20;99.90
43087;DHT22;28708;52.224;6.924;2023-02-24T14:23:13;6.20;99.90
43087;DHT22;28708;52.224;6.924;2023-02-24T14:25:44;6.30;99.90
43087;DHT22;28708;52.224;6.924;2023-02-24T14:28:18;6.40;99.90
43087;DHT22;28708;52.224;6.924;2023-02-24T14:30:54;6.50;99.90
43087;DHT22;28708;52.224;6.924;2023-02-24T14:33:30;6.70;99.90
43087;DHT22;28708;52.224;6.924;2023-02-24T14:35:57;6.90;99.90
43087;DHT22;28708;52.224;6.924;2023-02-24T14:38:42;7.00;99.90
43087;DHT22;28708;52.224;6.924;2023-02-24T14:41:22;7.10;99.90
43087;DHT22;28708;52.224;6.924;2023-02-24T14:43:50;7.20;99.90
43087;DHT22;28708;52.224;6.924;2023-02-24T14:46:16;7.30;99.90
43087;DHT22;28708;52.224;6.924;2023-02-24T14:48:43;7.30;99.90
43087;DHT22;28708;52.224;6.924;2023-02-24T14:51:18;7.40;99.90
43087;DHT22;28708;52.224;6.924;2023-02-24T14:53:51;7.50;99.90
43087;DHT22;28708;52.224;6.924;2023-02-24T14:56:20;7.50;99.90
43087;DHT22;28708;52.224;6.924;2023-02-24T14:58:53;7.60;99.90
43087;DHT22;28708;52.224;6.924;2023-02-24T15:01:31;7.50;99.90
43087;DHT22;28708;52.224;6.924;2023-02-24T15:04:09;7.40;99.90
43087;DHT22;28708;52.224;6.924;2023-02-24T15:06:35;7.40;99.90
43087;DHT22;28708;52.224;6.924;2023-02-24T15:09:18;7.40;99.90
43087;DHT22;28708;52.224;6.924;2023-02-24T15:11:46;7.40;99.90
43087;DHT22;28708;52.224;6.924;2023-02-24T15:14:25;7.40;99.90
43087;DHT22;28708;52.224;6.924;2023-02-24T15:16:57;7.30;99.90
43087;DHT22;28708;52.224;6.924;2023-02-24T15:21:58;7.40;99.90
43087;DHT22;28708;52.224;6.924;2023-02-24T15:27:20;7.40;99.90
43087;DHT22;28708;52.224;6.924;2023-02-24T15:30:05;7.30;99.90
43087;DHT22;28708;52.224;6.924;2023-02-24T15:32:34;7.30;99.90
43087;DHT22;28708;52.224;6.924;2023-02-24T15:35:00;7.30;99.90
43087;DHT22;28708;52.224;6.924;2023-02-24T15:37:27;7.00;99.90
43087;DHT22;28708;52.224;6.924;2023-02-24T15:40:18;6.90;99.90
43087;DHT22;28708;52.224;6.924;2023-02-24T15:42:56;6.70;99.90
43087;DHT22;28708;52.224;6.924;2023-02-24T15:47:53;6.70;99.90
43087;DHT22;28708;52.224;6.924;2023-02-24T15:50:19;6.90;99.90
43087;DHT22;28708;52.224;6.924;2023-02-24T15:52:45;6.90;99.90
43087;DHT22;28708;52.224;6.924;2023-02-24T15:55:13;7.00;99.90
43087;DHT22;28708;52.224;6.924;2023-02-24T15:57:40;7.00;99.90
43087;DHT22;28708;52.224;6.924;2023-02-24T16:00:06;6.90;99.90
43087;DHT22;28708;52.224;6.924;2023-02-24T16:02:38;6.90;99.90
43087;DHT22;28708;52.224;6.924;2023-02-24T16:05:04;6.80;99.90
43087;DHT22;28708;52.224;6.924;2023-02-24T16:07:32;6.80;99.90
43087;DHT22;28708;52.224;6.924;2023-02-24T16:09:59;6.80;99.90
43087;DHT22;28708;52.224;6.924;2023-02-24T16:12:31;6.80;99.90
43087;DHT22;28708;52.224;6.924;2023-02-24T16:14:59;6.80;99.90
43087;DHT22;28708;52.224;6.924;2023-02-24T16:17:38;6.80;99.90
43087;DHT22;28708;52.224;6.924;2023-02-24T16:20:16;6.70;99.90
43087;DHT22;28708;52.224;6.924;2023-02-24T16:22:42;6.20;99.90
43087;DHT22;28708;52.224;6.924;2023-02-24T16:25:09;5.90;99.90
43087;DHT22;28708;52.224;6.924;2023-02-24T16:27:35;5.70;99.90
43087;DHT22;28708;52.224;6.924;2023-02-24T16:30:00;5.60;99.90
43087;DHT22;28708;52.224;6.924;2023-02-24T16:32:26;5.50;99.90
43087;DHT22;28708;52.224;6.924;2023-02-24T16:34:52;5.50;99.90
43087;DHT22;28708;52.224;6.924;2023-02-24T16:37:28;5.50;99.90
43087;DHT22;28708;52.224;6.924;2023-02-24T16:39:54;5.50;99.90
43087;DHT22;28708;52.224;6.924;2023-02-24T16:42:20;5.60;99.90
43087;DHT22;28708;52.224;6.924;2023-02-24T16:44:49;5.50;99.90
43087;DHT22;28708;52.224;6.924;2023-02-24T16:47:22;5.50;99.90
43087;DHT22;28708;52.224;6.924;2023-02-24T16:49:49;5.50;99.90
43087;DHT22;28708;52.224;6.924;2023-02-24T16:52:15;5.50;99.90
43087;DHT22;28708;52.224;6.924;2023-02-24T16:54:45;5.50;99.90
43087;DHT22;28708;52.224;6.924;2023-02-24T16:57:11;5.50;99.90
43087;DHT22;28708;52.224;6.924;2023-02-24T16:59:37;5.50;99.90
43087;DHT22;28708;52.224;6.924;2023-02-24T17:02:03;5.60;99.90
43087;DHT22;28708;52.224;6.924;2023-02-24T17:04:29;5.50;99.90
43087;DHT22;28708;52.224;6.924;2023-02-24T17:06:56;5.50;99.90
43087;DHT22;28708;52.224;6.924;2023-02-24T17:09:22;5.50;99.90
43087;DHT22;28708;52.224;6.924;2023-02-24T17:11:48;5.50;99.90
43087;DHT22;28708;52.224;6.924;2023-02-24T17:14:16;5.50;99.90
43087;DHT22;28708;52.224;6.924;2023-02-24T17:16:42;5.50;99.90
43087;DHT22;28708;52.224;6.924;2023-02-24T17:19:08;5.50;99.90
43087;DHT22;28708;52.224;6.924;2023-02-24T17:21:34;5.40;99.90
43087;DHT22;28708;52.224;6.924;2023-02-24T17:23:59;5.40;99.90
43087;DHT22;28708;52.224;6.924;2023-02-24T17:26:25;5.40;99.90
43087;DHT22;28708;52.224;6.924;2023-02-24T17:28:51;5.40;99.90
43087;DHT22;28708;52.224;6.924;2023-02-24T17:31:16;5.40;99.90
43087;DHT22;28708;52.224;6.924;2023-02-24T17:33:42;5.40;99.90
43087;DHT22;28708;52.224;6.924;2023-02-24T17:36:08;5.40;99.90
43087;DHT22;28708;52.224;6.924;2023-02-24T17:38:33;5.50;99.90
43087;DHT22;28708;52.224;6.924;2023-02-24T17:40:59;5.50;99.90
43087;DHT22;28708;52.224;6.924;2023-02-24T17:43:27;5.50;99.90
43087;DHT22;28708;52.224;6.924;2023-02-24T17:45:53;5.40;99.90
43087;DHT22;28708;52.224;6.924;2023-02-24T17:48:19;5.40;99.90
43087;DHT22;28708;52.224;6.924;2023-02-24T17:50:46;5.40;99.90
43087;DHT22;28708;52.224;6.924;2023-02-24T17:53:13;5.30;99.90
43087;DHT22;28708;52.224;6.924;2023-02-24T17:55:39;5.20;99.90
43087;DHT22;28708;52.224;6.924;2023-02-24T17:58:06;5.20;99.90
43087;DHT22;28708;52.224;6.924;2023-02-24T18:00:32;5.10;99.90
43087;DHT22;28708;52.224;6.924;2023-02-24T18:02:58;5.10;99.90
43087;DHT22;28708;52.224;6.924;2023-02-24T18:05:24;5.10;99.90
43087;DHT22;28708;52.224;6.924;2023-02-24T18:07:49;5.10;99.90